sensor_id;sensor_type;location;lat;lon;timestamp;temperature;humidity
26821;DHT22;37186;51.394;5.454;2022-10-28T00:02:45;17.90;85.80
26821;DHT22;37186;51.394;5.454;2022-10-28T00:05:45;17.90;85.80
26821;DHT22;37186;51.394;5.454;2022-10-28T00:08:46;17.90;85.80
26821;DHT22;37186;51.394;5.454;2022-10-28T00:11:47;17.90;85.80
26821;DHT22;37186;51.394;5.454;2022-10-28T00:14:48;17.80;85.70
26821;DHT22;37186;51.394;5.454;2022-10-28T00:17:48;17.80;85.70
26821;DHT22;37186;51.394;5.454;2022-10-28T00:20:49;17.80;85.70
26821;DHT22;37186;51.394;5.454;2022-10-28T00:23:50;17.80;85.70
26821;DHT22;37186;51.394;5.454;2022-10-28T00:26:50;17.70;85.70
26821;DHT22;37186;51.394;5.454;2022-10-28T00:29:51;17.70;85.60
26821;DHT22;37186;51.394;5.454;2022-10-28T00:32:51;17.70;85.70
26821;DHT22;37186;51.394;5.454;2022-10-28T00:35:52;17.70;85.60
26821;DHT22;37186;51.394;5.454;2022-10-28T00:38:54;17.70;85.60
26821;DHT22;37186;51.394;5.454;2022-10-28T00:41:57;17.70;85.60
26821;DHT22;37186;51.394;5.454;2022-10-28T00:45:00;17.60;85.50
26821;DHT22;37186;51.394;5.454;2022-10-28T00:48:03;17.60;85.60
26821;DHT22;37186;51.394;5.454;2022-10-28T00:51:04;17.60;85.60
26821;DHT22;37186;51.394;5.454;2022-10-28T00:54:05;17.60;85.60
26821;DHT22;37186;51.394;5.454;2022-10-28T00:57:10;17.50;85.60
26821;DHT22;37186;51.394;5.454;2022-10-28T01:00:13;17.60;85.60
26821;DHT22;37186;51.394;5.454;2022-10-28T01:03:15;17.50;85.50
26821;DHT22;37186;51.394;5.454;2022-10-28T01:06:15;17.50;85.50
26821;DHT22;37186;51.394;5.454;2022-10-28T01:09:16;17.50;85.50
26821;DHT22;37186;51.394;5.454;2022-10-28T01:12:33;17.50;85.50
26821;DHT22;37186;51.394;5.454;2022-10-28T01:22:15;17.40;85.60
26821;DHT22;37186;51.394;5.454;2022-10-28T01:28:45;17.30;85.50
26821;DHT22;37186;51.394;5.454;2022-10-28T01:31:58;17.30;85.50
26821;DHT22;37186;51.394;5.454;2022-10-28T01:38:35;17.30;85.50
26821;DHT22;37186;51.394;5.454;2022-10-28T01:48:13;17.20;85.50
26821;DHT22;37186;51.394;5.454;2022-10-28T01:51:31;17.20;85.50
26821;DHT22;37186;51.394;5.454;2022-10-28T01:54:35;17.20;85.50
26821;DHT22;37186;51.394;5.454;2022-10-28T01:57:37;17.20;85.60
26821;DHT22;37186;51.394;5.454;2022-10-28T02:00:39;17.10;85.50
26821;DHT22;37186;51.394;5.454;2022-10-28T02:03:44;17.10;85.60
26821;DHT22;37186;51.394;5.454;2022-10-28T02:06:49;17.10;85.60
26821;DHT22;37186;51.394;5.454;2022-10-28T02:10:14;17.10;85.60
26821;DHT22;37186;51.394;5.454;2022-10-28T02:13:18;17.10;85.60
26821;DHT22;37186;51.394;5.454;2022-10-28T02:16:37;17.10;85.70
26821;DHT22;37186;51.394;5.454;2022-10-28T02:22:56;17.00;85.50
26821;DHT22;37186;51.394;5.454;2022-10-28T02:26:14;17.00;85.50
26821;DHT22;37186;51.394;5.454;2022-10-28T02:29:32;17.00;85.60
26821;DHT22;37186;51.394;5.454;2022-10-28T02:32:38;17.00;85.60
26821;DHT22;37186;51.394;5.454;2022-10-28T02:35:48;17.00;85.70
26821;DHT22;37186;51.394;5.454;2022-10-28T02:38:56;17.00;86.40
26821;DHT22;37186;51.394;5.454;2022-10-28T02:42:05;17.00;85.60
26821;DHT22;37186;51.394;5.454;2022-10-28T02:45:14;16.90;85.60
26821;DHT22;37186;51.394;5.454;2022-10-28T02:48:21;16.90;85.60
26821;DHT22;37186;51.394;5.454;2022-10-28T02:51:29;16.90;85.60
26821;DHT22;37186;51.394;5.454;2022-10-28T02:57:44;16.90;85.60
26821;DHT22;37186;51.394;5.454;2022-10-28T03:00:47;16.90;85.60
26821;DHT22;37186;51.394;5.454;2022-10-28T03:03:49;16.90;85.60
26821;DHT22;37186;51.394;5.454;2022-10-28T03:06:49;16.90;85.70
26821;DHT22;37186;51.394;5.454;2022-10-28T03:09:50;16.90;85.70
26821;DHT22;37186;51.394;5.454;2022-10-28T03:12:50;16.90;85.60
26821;DHT22;37186;51.394;5.454;2022-10-28T03:15:51;16.90;85.60
26821;DHT22;37186;51.394;5.454;2022-10-28T03:18:52;16.90;85.70
26821;DHT22;37186;51.394;5.454;2022-10-28T03:21:53;16.90;85.60
26821;DHT22;37186;51.394;5.454;2022-10-28T03:24:53;16.90;85.60
26821;DHT22;37186;51.394;5.454;2022-10-28T03:27:54;16.90;85.60
26821;DHT22;37186;51.394;5.454;2022-10-28T03:30:54;16.90;85.70
26821;DHT22;37186;51.394;5.454;2022-10-28T03:33:55;16.80;85.60
26821;DHT22;37186;51.394;5.454;2022-10-28T03:36:55;16.90;85.60
26821;DHT22;37186;51.394;5.454;2022-10-28T03:39:56;16.90;85.60
26821;DHT22;37186;51.394;5.454;2022-10-28T03:42:56;16.80;85.60
26821;DHT22;37186;51.394;5.454;2022-10-28T03:45:57;16.80;85.60
26821;DHT22;37186;51.394;5.454;2022-10-28T03:48:57;16.80;85.60
26821;DHT22;37186;51.394;5.454;2022-10-28T03:51:58;16.80;85.60
26821;DHT22;37186;51.394;5.454;2022-10-28T03:54:58;16.80;85.60
26821;DHT22;37186;51.394;5.454;2022-10-28T03:58:00;16.80;85.60
26821;DHT22;37186;51.394;5.454;2022-10-28T04:01:00;16.80;85.60
26821;DHT22;37186;51.394;5.454;2022-10-28T04:04:01;16.80;85.60
26821;DHT22;37186;51.394;5.454;2022-10-28T04:07:02;16.80;85.60
26821;DHT22;37186;51.394;5.454;2022-10-28T04:10:02;16.80;85.60
26821;DHT22;37186;51.394;5.454;2022-10-28T04:13:04;16.80;85.60
26821;DHT22;37186;51.394;5.454;2022-10-28T04:16:05;16.80;85.70
26821;DHT22;37186;51.394;5.454;2022-10-28T04:19:06;16.80;86.40
26821;DHT22;37186;51.394;5.454;2022-10-28T04:22:06;16.80;85.60
26821;DHT22;37186;51.394;5.454;2022-10-28T04:25:08;16.70;85.60
26821;DHT22;37186;51.394;5.454;2022-10-28T04:28:09;16.70;85.60
26821;DHT22;37186;51.394;5.454;2022-10-28T04:31:09;16.70;85.60
26821;DHT22;37186;51.394;5.454;2022-10-28T04:34:11;16.70;85.60
26821;DHT22;37186;51.394;5.454;2022-10-28T04:37:12;16.70;85.70
26821;DHT22;37186;51.394;5.454;2022-10-28T04:40:12;16.70;85.70
26821;DHT22;37186;51.394;5.454;2022-10-28T04:43:13;16.70;85.60
26821;DHT22;37186;51.394;5.454;2022-10-28T04:46:13;16.70;85.60
26821;DHT22;37186;51.394;5.454;2022-10-28T04:49:14;16.70;85.60
26821;DHT22;37186;51.394;5.454;2022-10-28T04:52:14;16.70;85.60
26821;DHT22;37186;51.394;5.454;2022-10-28T04:55:15;16.70;85.60
26821;DHT22;37186;51.394;5.454;2022-10-28T04:58:15;16.60;85.60
26821;DHT22;37186;51.394;5.454;2022-10-28T05:01:16;16.70;85.60
26821;DHT22;37186;51.394;5.454;2022-10-28T05:04:16;16.70;85.60
26821;DHT22;37186;51.394;5.454;2022-10-28T05:07:17;16.70;85.60
26821;DHT22;37186;51.394;5.454;2022-10-28T05:10:17;16.70;85.60
26821;DHT22;37186;51.394;5.454;2022-10-28T05:13:18;16.60;85.50
26821;DHT22;37186;51.394;5.454;2022-10-28T05:16:19;16.60;85.60
26821;DHT22;37186;51.394;5.454;2022-10-28T05:19:19;16.60;85.50
26821;DHT22;37186;51.394;5.454;2022-10-28T05:22:20;16.60;85.60
26821;DHT22;37186;51.394;5.454;2022-10-28T05:25:21;16.60;85.60
26821;DHT22;37186;51.394;5.454;2022-10-28T05:28:21;16.60;85.50
26821;DHT22;37186;51.394;5.454;2022-10-28T05:31:22;16.60;85.50
26821;DHT22;37186;51.394;5.454;2022-10-28T05:34:22;16.50;85.50
26821;DHT22;37186;51.394;5.454;2022-10-28T05:37:23;16.60;85.60
26821;DHT22;37186;51.394;5.454;2022-10-28T05:40:23;16.50;85.50
26821;DHT22;37186;51.394;5.454;2022-10-28T05:43:24;16.50;85.50
26821;DHT22;37186;51.394;5.454;2022-10-28T05:46:25;16.50;85.50
26821;DHT22;37186;51.394;5.454;2022-10-28T05:49:25;16.50;85.50
26821;DHT22;37186;51.394;5.454;2022-10-28T05:52:26;16.50;85.50
26821;DHT22;37186;51.394;5.454;2022-10-28T05:55:27;16.50;85.50
26821;DHT22;37186;51.394;5.454;2022-10-28T05:58:28;16.50;85.50
26821;DHT22;37186;51.394;5.454;2022-10-28T06:01:29;16.50;85.50
26821;DHT22;37186;51.394;5.454;2022-10-28T06:04:29;16.40;85.50
26821;DHT22;37186;51.394;5.454;2022-10-28T06:07:30;16.40;85.50
26821;DHT22;37186;51.394;5.454;2022-10-28T06:10:31;16.40;85.50
26821;DHT22;37186;51.394;5.454;2022-10-28T06:13:32;16.40;85.50
26821;DHT22;37186;51.394;5.454;2022-10-28T06:16:33;16.40;85.50
26821;DHT22;37186;51.394;5.454;2022-10-28T06:19:33;16.40;85.50
26821;DHT22;37186;51.394;5.454;2022-10-28T06:22:34;16.40;86.40
26821;DHT22;37186;51.394;5.454;2022-10-28T06:25:34;16.40;85.50
26821;DHT22;37186;51.394;5.454;2022-10-28T06:28:35;16.40;85.50
26821;DHT22;37186;51.394;5.454;2022-10-28T06:31:38;16.40;85.50
26821;DHT22;37186;51.394;5.454;2022-10-28T06:34:39;16.40;85.50
26821;DHT22;37186;51.394;5.454;2022-10-28T06:37:40;16.40;85.60
26821;DHT22;37186;51.394;5.454;2022-10-28T06:40:40;16.40;85.50
26821;DHT22;37186;51.394;5.454;2022-10-28T06:43:41;16.30;85.40
26821;DHT22;37186;51.394;5.454;2022-10-28T06:46:41;16.30;85.50
26821;DHT22;37186;51.394;5.454;2022-10-28T06:49:42;16.30;85.40
26821;DHT22;37186;51.394;5.454;2022-10-28T06:52:42;16.30;85.50
26821;DHT22;37186;51.394;5.454;2022-10-28T06:55:43;16.30;85.40
26821;DHT22;37186;51.394;5.454;2022-10-28T06:58:52;16.30;85.50
26821;DHT22;37186;51.394;5.454;2022-10-28T07:01:52;16.30;85.50
26821;DHT22;37186;51.394;5.454;2022-10-28T07:04:53;16.30;85.50
26821;DHT22;37186;51.394;5.454;2022-10-28T07:07:53;16.30;85.50
26821;DHT22;37186;51.394;5.454;2022-10-28T07:10:55;16.30;85.50
26821;DHT22;37186;51.394;5.454;2022-10-28T07:13:56;16.30;85.60
26821;DHT22;37186;51.394;5.454;2022-10-28T07:16:57;16.30;85.60
26821;DHT22;37186;51.394;5.454;2022-10-28T07:19:57;16.30;85.60
26821;DHT22;37186;51.394;5.454;2022-10-28T07:22:59;16.30;85.70
26821;DHT22;37186;51.394;5.454;2022-10-28T07:26:00;16.30;85.70
26821;DHT22;37186;51.394;5.454;2022-10-28T07:29:00;16.30;85.70
26821;DHT22;37186;51.394;5.454;2022-10-28T07:32:01;16.40;85.80
26821;DHT22;37186;51.394;5.454;2022-10-28T07:35:02;16.40;85.90
26821;DHT22;37186;51.394;5.454;2022-10-28T07:38:02;16.40;85.90
26821;DHT22;37186;51.394;5.454;2022-10-28T07:41:08;16.40;85.90
26821;DHT22;37186;51.394;5.454;2022-10-28T07:44:08;16.40;86.00
26821;DHT22;37186;51.394;5.454;2022-10-28T07:47:09;16.40;86.00
26821;DHT22;37186;51.394;5.454;2022-10-28T07:50:10;16.50;86.00
26821;DHT22;37186;51.394;5.454;2022-10-28T07:53:11;16.50;86.10
26821;DHT22;37186;51.394;5.454;2022-10-28T07:56:11;16.50;86.10
26821;DHT22;37186;51.394;5.454;2022-10-28T07:59:13;16.50;86.10
26821;DHT22;37186;51.394;5.454;2022-10-28T08:02:19;16.50;86.20
26821;DHT22;37186;51.394;5.454;2022-10-28T08:05:20;16.60;86.20
26821;DHT22;37186;51.394;5.454;2022-10-28T08:08:20;16.60;86.30
26821;DHT22;37186;51.394;5.454;2022-10-28T08:11:22;16.60;86.30
26821;DHT22;37186;51.394;5.454;2022-10-28T08:14:23;16.70;86.40
26821;DHT22;37186;51.394;5.454;2022-10-28T08:17:23;16.70;86.40
26821;DHT22;37186;51.394;5.454;2022-10-28T08:20:24;16.80;86.50
26821;DHT22;37186;51.394;5.454;2022-10-28T08:23:25;16.80;87.30
26821;DHT22;37186;51.394;5.454;2022-10-28T08:26:25;16.80;86.50
26821;DHT22;37186;51.394;5.454;2022-10-28T08:29:26;16.90;86.60
26821;DHT22;37186;51.394;5.454;2022-10-28T08:32:26;16.90;86.60
26821;DHT22;37186;51.394;5.454;2022-10-28T08:35:27;16.90;86.60
26821;DHT22;37186;51.394;5.454;2022-10-28T08:38:27;17.00;86.60
26821;DHT22;37186;51.394;5.454;2022-10-28T08:41:29;17.00;86.60
26821;DHT22;37186;51.394;5.454;2022-10-28T08:44:54;17.10;86.70
26821;DHT22;37186;51.394;5.454;2022-10-28T08:54:21;17.20;86.80
26821;DHT22;37186;51.394;5.454;2022-10-28T08:57:36;17.20;86.70
26821;DHT22;37186;51.394;5.454;2022-10-28T09:00:39;17.30;86.80
26821;DHT22;37186;51.394;5.454;2022-10-28T09:03:44;17.30;86.80
26821;DHT22;37186;51.394;5.454;2022-10-28T09:06:46;17.30;86.80
26821;DHT22;37186;51.394;5.454;2022-10-28T09:09:48;17.40;86.90
26821;DHT22;37186;51.394;5.454;2022-10-28T09:13:29;17.40;86.90
26821;DHT22;37186;51.394;5.454;2022-10-28T09:16:46;17.40;86.80
26821;DHT22;37186;51.394;5.454;2022-10-28T09:19:52;17.50;86.90
26821;DHT22;37186;51.394;5.454;2022-10-28T09:22:57;17.60;87.00
26821;DHT22;37186;51.394;5.454;2022-10-28T09:26:30;17.60;87.10
26821;DHT22;37186;51.394;5.454;2022-10-28T09:29:38;17.70;87.10
26821;DHT22;37186;51.394;5.454;2022-10-28T09:32:51;17.70;87.10
26821;DHT22;37186;51.394;5.454;2022-10-28T09:35:53;17.70;87.10
26821;DHT22;37186;51.394;5.454;2022-10-28T09:38:56;17.80;87.10
26821;DHT22;37186;51.394;5.454;2022-10-28T09:41:58;17.90;87.10
26821;DHT22;37186;51.394;5.454;2022-10-28T09:45:03;17.90;87.10
26821;DHT22;37186;51.394;5.454;2022-10-28T09:48:33;17.90;87.20
26821;DHT22;37186;51.394;5.454;2022-10-28T09:54:49;18.00;87.10
26821;DHT22;37186;51.394;5.454;2022-10-28T09:57:50;18.00;87.10
26821;DHT22;37186;51.394;5.454;2022-10-28T10:00:50;18.10;87.10
26821;DHT22;37186;51.394;5.454;2022-10-28T10:03:51;18.10;87.10
26821;DHT22;37186;51.394;5.454;2022-10-28T10:06:55;18.20;87.10
26821;DHT22;37186;51.394;5.454;2022-10-28T10:09:59;18.20;87.20
26821;DHT22;37186;51.394;5.454;2022-10-28T10:13:03;18.20;87.20
26821;DHT22;37186;51.394;5.454;2022-10-28T10:16:10;18.30;87.20
26821;DHT22;37186;51.394;5.454;2022-10-28T10:19:12;18.30;87.20
26821;DHT22;37186;51.394;5.454;2022-10-28T10:22:31;18.40;87.30
26821;DHT22;37186;51.394;5.454;2022-10-28T10:25:32;18.40;88.10
26821;DHT22;37186;51.394;5.454;2022-10-28T10:28:35;18.50;87.30
26821;DHT22;37186;51.394;5.454;2022-10-28T10:31:36;18.50;87.30
26821;DHT22;37186;51.394;5.454;2022-10-28T10:34:36;18.60;87.30
26821;DHT22;37186;51.394;5.454;2022-10-28T10:37:41;18.60;87.40
26821;DHT22;37186;51.394;5.454;2022-10-28T10:40:50;18.60;87.30
26821;DHT22;37186;51.394;5.454;2022-10-28T10:43:50;18.70;87.30
26821;DHT22;37186;51.394;5.454;2022-10-28T10:50:21;18.80;87.30
26821;DHT22;37186;51.394;5.454;2022-10-28T10:53:27;18.80;87.30
26821;DHT22;37186;51.394;5.454;2022-10-28T10:56:32;18.80;87.30
26821;DHT22;37186;51.394;5.454;2022-10-28T10:59:34;18.90;87.40
26821;DHT22;37186;51.394;5.454;2022-10-28T11:02:37;19.00;87.40
26821;DHT22;37186;51.394;5.454;2022-10-28T11:05:47;19.00;87.30
26821;DHT22;37186;51.394;5.454;2022-10-28T11:08:48;19.00;87.40
26821;DHT22;37186;51.394;5.454;2022-10-28T11:11:53;19.10;87.60
26821;DHT22;37186;51.394;5.454;2022-10-28T11:14:58;19.20;87.60
26821;DHT22;37186;51.394;5.454;2022-10-28T11:18:01;19.20;87.60
26821;DHT22;37186;51.394;5.454;2022-10-28T11:38:14;19.60;87.60
26821;DHT22;37186;51.394;5.454;2022-10-28T11:44:47;19.70;87.60
26821;DHT22;37186;51.394;5.454;2022-10-28T11:52:24;19.80;87.60
26821;DHT22;37186;51.394;5.454;2022-10-28T11:55:45;19.80;87.40
26821;DHT22;37186;51.394;5.454;2022-10-28T12:05:31;19.90;87.30
26821;DHT22;37186;51.394;5.454;2022-10-28T12:15:42;20.10;87.20
26821;DHT22;37186;51.394;5.454;2022-10-28T12:19:07;20.10;87.10
26821;DHT22;37186;51.394;5.454;2022-10-28T12:22:25;20.20;87.10
26821;DHT22;37186;51.394;5.454;2022-10-28T12:25:29;20.20;87.10
26821;DHT22;37186;51.394;5.454;2022-10-28T12:28:39;20.20;87.80
26821;DHT22;37186;51.394;5.454;2022-10-28T12:31:47;20.30;87.10
26821;DHT22;37186;51.394;5.454;2022-10-28T12:41:24;20.40;86.90
26821;DHT22;37186;51.394;5.454;2022-10-28T12:44:26;20.40;87.00
26821;DHT22;37186;51.394;5.454;2022-10-28T12:51:08;20.50;86.90
26821;DHT22;37186;51.394;5.454;2022-10-28T12:54:28;20.50;86.90
26821;DHT22;37186;51.394;5.454;2022-10-28T12:57:32;20.50;86.80
26821;DHT22;37186;51.394;5.454;2022-10-28T13:00:36;20.60;86.80
26821;DHT22;37186;51.394;5.454;2022-10-28T13:03:40;20.60;86.70
26821;DHT22;37186;51.394;5.454;2022-10-28T13:10:27;20.60;86.70
26821;DHT22;37186;51.394;5.454;2022-10-28T13:19:59;20.60;86.40
26821;DHT22;37186;51.394;5.454;2022-10-28T13:23:38;20.60;86.40
26821;DHT22;37186;51.394;5.454;2022-10-28T13:26:43;20.60;86.30
26821;DHT22;37186;51.394;5.454;2022-10-28T13:29:50;20.60;86.20
26821;DHT22;37186;51.394;5.454;2022-10-28T13:33:02;20.70;86.30
26821;DHT22;37186;51.394;5.454;2022-10-28T13:42:29;20.70;86.20
26821;DHT22;37186;51.394;5.454;2022-10-28T13:45:53;20.70;86.20
26821;DHT22;37186;51.394;5.454;2022-10-28T13:49:24;20.70;86.20
26821;DHT22;37186;51.394;5.454;2022-10-28T13:52:25;20.70;86.20
26821;DHT22;37186;51.394;5.454;2022-10-28T13:55:42;20.70;86.20
26821;DHT22;37186;51.394;5.454;2022-10-28T13:58:51;20.80;86.20
26821;DHT22;37186;51.394;5.454;2022-10-28T14:02:13;20.80;86.30
26821;DHT22;37186;51.394;5.454;2022-10-28T14:05:16;20.80;86.20
26821;DHT22;37186;51.394;5.454;2022-10-28T14:08:26;20.80;86.20
26821;DHT22;37186;51.394;5.454;2022-10-28T14:11:28;20.80;86.20
26821;DHT22;37186;51.394;5.454;2022-10-28T14:14:30;20.90;86.40
26821;DHT22;37186;51.394;5.454;2022-10-28T14:17:39;20.90;86.20
26821;DHT22;37186;51.394;5.454;2022-10-28T14:20:58;20.90;86.20
26821;DHT22;37186;51.394;5.454;2022-10-28T14:27:41;20.90;86.10
26821;DHT22;37186;51.394;5.454;2022-10-28T14:37:41;21.00;86.20
26821;DHT22;37186;51.394;5.454;2022-10-28T14:40:53;21.00;86.10
26821;DHT22;37186;51.394;5.454;2022-10-28T14:47:37;21.00;86.10
26821;DHT22;37186;51.394;5.454;2022-10-28T14:50:47;21.00;86.10
26821;DHT22;37186;51.394;5.454;2022-10-28T14:53:50;21.00;86.00
26821;DHT22;37186;51.394;5.454;2022-10-28T14:56:55;21.00;86.00
26821;DHT22;37186;51.394;5.454;2022-10-28T15:00:00;21.00;86.00
26821;DHT22;37186;51.394;5.454;2022-10-28T15:03:01;21.00;86.00
26821;DHT22;37186;51.394;5.454;2022-10-28T15:06:21;21.00;86.00
26821;DHT22;37186;51.394;5.454;2022-10-28T15:09:26;21.00;86.00
26821;DHT22;37186;51.394;5.454;2022-10-28T15:12:27;20.90;85.90
26821;DHT22;37186;51.394;5.454;2022-10-28T15:15:31;21.00;85.90
26821;DHT22;37186;51.394;5.454;2022-10-28T15:18:32;20.90;85.90
26821;DHT22;37186;51.394;5.454;2022-10-28T15:21:33;20.90;85.90
26821;DHT22;37186;51.394;5.454;2022-10-28T15:24:33;20.90;85.90
26821;DHT22;37186;51.394;5.454;2022-10-28T15:27:36;20.90;85.90
26821;DHT22;37186;51.394;5.454;2022-10-28T15:30:39;20.90;85.90
26821;DHT22;37186;51.394;5.454;2022-10-28T15:33:41;20.90;85.80
26821;DHT22;37186;51.394;5.454;2022-10-28T15:36:47;20.90;85.80
26821;DHT22;37186;51.394;5.454;2022-10-28T15:39:48;20.80;85.80
26821;DHT22;37186;51.394;5.454;2022-10-28T15:43:03;20.80;85.70
26821;DHT22;37186;51.394;5.454;2022-10-28T15:46:10;20.80;85.70
26821;DHT22;37186;51.394;5.454;2022-10-28T15:49:31;20.80;85.70
26821;DHT22;37186;51.394;5.454;2022-10-28T15:52:34;20.80;85.70
26821;DHT22;37186;51.394;5.454;2022-10-28T15:55:36;20.80;85.70
26821;DHT22;37186;51.394;5.454;2022-10-28T15:58:41;20.70;85.60
26821;DHT22;37186;51.394;5.454;2022-10-28T16:01:41;20.70;85.60
26821;DHT22;37186;51.394;5.454;2022-10-28T16:04:42;20.70;85.60
26821;DHT22;37186;51.394;5.454;2022-10-28T16:07:45;20.70;85.60
26821;DHT22;37186;51.394;5.454;2022-10-28T16:10:51;20.60;85.50
26821;DHT22;37186;51.394;5.454;2022-10-28T16:13:53;20.60;85.60
26821;DHT22;37186;51.394;5.454;2022-10-28T16:16:54;20.70;85.60
26821;DHT22;37186;51.394;5.454;2022-10-28T16:20:00;20.60;85.50
26821;DHT22;37186;51.394;5.454;2022-10-28T16:23:01;20.60;85.50
26821;DHT22;37186;51.394;5.454;2022-10-28T16:26:02;20.50;85.50
26821;DHT22;37186;51.394;5.454;2022-10-28T16:29:03;20.50;85.50
26821;DHT22;37186;51.394;5.454;2022-10-28T16:32:04;20.50;85.50
26821;DHT22;37186;51.394;5.454;2022-10-28T16:35:24;20.40;85.40
26821;DHT22;37186;51.394;5.454;2022-10-28T16:38:25;20.40;85.40
26821;DHT22;37186;51.394;5.454;2022-10-28T16:41:26;20.40;85.40
26821;DHT22;37186;51.394;5.454;2022-10-28T16:44:27;20.30;85.30
26821;DHT22;37186;51.394;5.454;2022-10-28T16:47:27;20.30;85.30
26821;DHT22;37186;51.394;5.454;2022-10-28T16:50:28;20.20;85.30
26821;DHT22;37186;51.394;5.454;2022-10-28T16:53:29;20.20;85.30
26821;DHT22;37186;51.394;5.454;2022-10-28T16:56:29;20.20;85.30
26821;DHT22;37186;51.394;5.454;2022-10-28T16:59:30;20.10;85.20
26821;DHT22;37186;51.394;5.454;2022-10-28T17:02:32;20.10;85.20
26821;DHT22;37186;51.394;5.454;2022-10-28T17:05:32;20.10;85.30
26821;DHT22;37186;51.394;5.454;2022-10-28T17:08:33;20.00;85.20
26821;DHT22;37186;51.394;5.454;2022-10-28T17:11:33;20.00;85.20
26821;DHT22;37186;51.394;5.454;2022-10-28T17:14:34;20.00;85.20
26821;DHT22;37186;51.394;5.454;2022-10-28T17:17:34;20.00;85.30
26821;DHT22;37186;51.394;5.454;2022-10-28T17:20:35;19.90;85.20
26821;DHT22;37186;51.394;5.454;2022-10-28T17:23:37;19.90;85.20
26821;DHT22;37186;51.394;5.454;2022-10-28T17:26:38;19.90;85.20
26821;DHT22;37186;51.394;5.454;2022-10-28T17:29:39;19.80;85.20
26821;DHT22;37186;51.394;5.454;2022-10-28T17:32:39;19.80;85.20
26821;DHT22;37186;51.394;5.454;2022-10-28T17:35:40;19.80;85.20
26821;DHT22;37186;51.394;5.454;2022-10-28T17:38:40;19.80;85.20
26821;DHT22;37186;51.394;5.454;2022-10-28T17:41:41;19.70;85.20
26821;DHT22;37186;51.394;5.454;2022-10-28T17:44:41;19.70;85.20
26821;DHT22;37186;51.394;5.454;2022-10-28T17:47:42;19.60;85.10
26821;DHT22;37186;51.394;5.454;2022-10-28T17:50:42;19.60;85.10
26821;DHT22;37186;51.394;5.454;2022-10-28T17:53:43;19.60;85.20
26821;DHT22;37186;51.394;5.454;2022-10-28T17:56:44;19.50;85.10
26821;DHT22;37186;51.394;5.454;2022-10-28T17:59:45;19.50;85.10
26821;DHT22;37186;51.394;5.454;2022-10-28T18:02:46;19.50;85.10
26821;DHT22;37186;51.394;5.454;2022-10-28T18:05:46;19.50;85.20
26821;DHT22;37186;51.394;5.454;2022-10-28T18:08:47;19.40;85.10
26821;DHT22;37186;51.394;5.454;2022-10-28T18:11:48;19.40;85.20
26821;DHT22;37186;51.394;5.454;2022-10-28T18:14:49;19.40;85.10
26821;DHT22;37186;51.394;5.454;2022-10-28T18:17:49;19.40;85.20
26821;DHT22;37186;51.394;5.454;2022-10-28T18:20:54;19.40;85.20
26821;DHT22;37186;51.394;5.454;2022-10-28T18:23:54;19.30;85.10
26821;DHT22;37186;51.394;5.454;2022-10-28T18:27:02;19.30;85.10
26821;DHT22;37186;51.394;5.454;2022-10-28T18:30:03;19.20;85.10
26821;DHT22;37186;51.394;5.454;2022-10-28T18:33:04;19.20;85.10
26821;DHT22;37186;51.394;5.454;2022-10-28T18:36:10;19.20;85.90
26821;DHT22;37186;51.394;5.454;2022-10-28T18:39:11;19.20;85.10
26821;DHT22;37186;51.394;5.454;2022-10-28T18:42:11;19.20;85.10
26821;DHT22;37186;51.394;5.454;2022-10-28T18:45:12;19.10;85.10
26821;DHT22;37186;51.394;5.454;2022-10-28T18:48:13;19.10;85.10
26821;DHT22;37186;51.394;5.454;2022-10-28T18:51:14;19.10;85.10
26821;DHT22;37186;51.394;5.454;2022-10-28T18:54:14;19.00;85.00
26821;DHT22;37186;51.394;5.454;2022-10-28T18:57:15;19.00;85.00
26821;DHT22;37186;51.394;5.454;2022-10-28T19:00:17;19.00;85.10
26821;DHT22;37186;51.394;5.454;2022-10-28T19:03:21;19.00;85.00
26821;DHT22;37186;51.394;5.454;2022-10-28T19:06:23;19.00;85.00
26821;DHT22;37186;51.394;5.454;2022-10-28T19:09:25;18.90;85.00
26821;DHT22;37186;51.394;5.454;2022-10-28T19:12:25;18.90;85.00
26821;DHT22;37186;51.394;5.454;2022-10-28T19:15:26;18.90;85.00
26821;DHT22;37186;51.394;5.454;2022-10-28T19:18:27;18.90;85.10
26821;DHT22;37186;51.394;5.454;2022-10-28T19:21:27;18.80;85.00
26821;DHT22;37186;51.394;5.454;2022-10-28T19:24:28;18.80;85.00
26821;DHT22;37186;51.394;5.454;2022-10-28T19:27:28;18.80;85.00
26821;DHT22;37186;51.394;5.454;2022-10-28T19:30:29;18.70;85.00
26821;DHT22;37186;51.394;5.454;2022-10-28T19:33:30;18.70;85.00
26821;DHT22;37186;51.394;5.454;2022-10-28T19:36:30;18.70;85.00
26821;DHT22;37186;51.394;5.454;2022-10-28T19:39:31;18.70;85.00
26821;DHT22;37186;51.394;5.454;2022-10-28T19:42:31;18.70;85.00
26821;DHT22;37186;51.394;5.454;2022-10-28T19:45:32;18.70;85.00
26821;DHT22;37186;51.394;5.454;2022-10-28T19:48:33;18.60;85.00
26821;DHT22;37186;51.394;5.454;2022-10-28T19:51:39;18.60;84.90
26821;DHT22;37186;51.394;5.454;2022-10-28T19:54:40;18.60;85.00
26821;DHT22;37186;51.394;5.454;2022-10-28T19:57:40;18.60;85.00
26821;DHT22;37186;51.394;5.454;2022-10-28T20:00:41;18.60;85.00
26821;DHT22;37186;51.394;5.454;2022-10-28T20:03:41;18.50;84.90
26821;DHT22;37186;51.394;5.454;2022-10-28T20:06:42;18.50;84.90
26821;DHT22;37186;51.394;5.454;2022-10-28T20:09:42;18.50;85.00
26821;DHT22;37186;51.394;5.454;2022-10-28T20:12:43;18.40;84.90
26821;DHT22;37186;51.394;5.454;2022-10-28T20:15:43;18.40;84.90
26821;DHT22;37186;51.394;5.454;2022-10-28T20:18:45;18.40;84.90
26821;DHT22;37186;51.394;5.454;2022-10-28T20:21:45;18.40;84.90
26821;DHT22;37186;51.394;5.454;2022-10-28T20:24:47;18.40;85.00
26821;DHT22;37186;51.394;5.454;2022-10-28T20:27:48;18.40;85.00
26821;DHT22;37186;51.394;5.454;2022-10-28T20:31:04;18.30;84.90
26821;DHT22;37186;51.394;5.454;2022-10-28T20:34:07;18.30;84.90
26821;DHT22;37186;51.394;5.454;2022-10-28T20:37:07;18.30;84.90
26821;DHT22;37186;51.394;5.454;2022-10-28T20:40:08;18.30;84.90
26821;DHT22;37186;51.394;5.454;2022-10-28T20:43:09;18.20;84.90
26821;DHT22;37186;51.394;5.454;2022-10-28T20:46:10;18.20;84.80
26821;DHT22;37186;51.394;5.454;2022-10-28T20:49:11;18.20;84.90
26821;DHT22;37186;51.394;5.454;2022-10-28T20:52:12;18.20;84.90
26821;DHT22;37186;51.394;5.454;2022-10-28T20:55:15;18.20;84.90
26821;DHT22;37186;51.394;5.454;2022-10-28T20:58:16;18.20;84.90
26821;DHT22;37186;51.394;5.454;2022-10-28T21:01:19;18.10;84.80
26821;DHT22;37186;51.394;5.454;2022-10-28T21:04:20;18.10;84.90
26821;DHT22;37186;51.394;5.454;2022-10-28T21:07:20;18.00;84.90
26821;DHT22;37186;51.394;5.454;2022-10-28T21:10:21;18.00;84.90
26821;DHT22;37186;51.394;5.454;2022-10-28T21:13:21;18.00;84.90
26821;DHT22;37186;51.394;5.454;2022-10-28T21:16:23;18.00;84.90
26821;DHT22;37186;51.394;5.454;2022-10-28T21:19:23;18.00;84.90